sensor_id;sensor_type;location;lat;lon;timestamp;P1;durP1;ratioP1;P2;durP2;ratioP2
19554;SDS011;9924;50.828;6.440;2023-11-19T00:00:43;0.47;;;0.40;;
19554;SDS011;9924;50.828;6.440;2023-11-19T00:03:09;0.68;;;0.40;;
19554;SDS011;9924;50.828;6.440;2023-11-19T00:05:38;0.55;;;0.40;;
19554;SDS011;9924;50.828;6.440;2023-11-19T00:08:04;0.30;;;0.30;;
19554;SDS011;9924;50.828;6.440;2023-11-19T00:10:31;0.70;;;0.40;;
19554;SDS011;9924;50.828;6.440;2023-11-19T00:12:56;0.30;;;0.30;;
19554;SDS011;9924;50.828;6.440;2023-11-19T00:15:22;0.35;;;0.32;;
19554;SDS011;9924;50.828;6.440;2023-11-19T00:17:49;0.25;;;0.25;;
19554;SDS011;9924;50.828;6.440;2023-11-19T00:20:19;0.95;;;0.40;;
19554;SDS011;9924;50.828;6.440;2023-11-19T00:22:48;1.08;;;0.28;;
19554;SDS011;9924;50.828;6.440;2023-11-19T00:25:18;0.22;;;0.22;;
19554;SDS011;9924;50.828;6.440;2023-11-19T00:27:44;1.20;;;0.30;;
19554;SDS011;9924;50.828;6.440;2023-11-19T00:30:10;1.20;;;0.50;;
19554;SDS011;9924;50.828;6.440;2023-11-19T00:32:36;1.25;;;0.38;;
19554;SDS011;9924;50.828;6.440;2023-11-19T00:35:04;1.85;;;0.60;;
19554;SDS011;9924;50.828;6.440;2023-11-19T00:37:31;4.22;;;0.40;;
19554;SDS011;9924;50.828;6.440;2023-11-19T00:39:57;0.60;;;0.32;;
19554;SDS011;9924;50.828;6.440;2023-11-19T00:42:23;0.68;;;0.45;;
19554;SDS011;9924;50.828;6.440;2023-11-19T00:44:49;1.55;;;0.50;;
19554;SDS011;9924;50.828;6.440;2023-11-19T00:47:15;1.85;;;0.40;;
19554;SDS011;9924;50.828;6.440;2023-11-19T00:49:41;2.78;;;0.60;;
19554;SDS011;9924;50.828;6.440;2023-11-19T00:52:08;3.30;;;0.82;;
19554;SDS011;9924;50.828;6.440;2023-11-19T00:54:34;1.38;;;0.45;;
19554;SDS011;9924;50.828;6.440;2023-11-19T00:56:59;2.10;;;0.80;;
19554;SDS011;9924;50.828;6.440;2023-11-19T00:59:26;0.85;;;0.85;;
19554;SDS011;9924;50.828;6.440;2023-11-19T01:01:53;1.17;;;0.70;;
19554;SDS011;9924;50.828;6.440;2023-11-19T01:04:20;1.63;;;0.90;;
19554;SDS011;9924;50.828;6.440;2023-11-19T01:06:45;1.48;;;0.70;;
19554;SDS011;9924;50.828;6.440;2023-11-19T01:09:11;1.73;;;0.60;;
19554;SDS011;9924;50.828;6.440;2023-11-19T01:11:37;3.67;;;0.80;;
19554;SDS011;9924;50.828;6.440;2023-11-19T01:14:03;3.53;;;0.93;;
19554;SDS011;9924;50.828;6.440;2023-11-19T01:16:29;1.10;;;0.80;;
19554;SDS011;9924;50.828;6.440;2023-11-19T01:18:54;5.78;;;0.90;;
19554;SDS011;9924;50.828;6.440;2023-11-19T01:21:21;0.93;;;0.70;;
19554;SDS011;9924;50.828;6.440;2023-11-19T01:23:47;2.58;;;1.05;;
19554;SDS011;9924;50.828;6.440;2023-11-19T01:26:13;3.45;;;0.90;;
19554;SDS011;9924;50.828;6.440;2023-11-19T01:28:39;2.03;;;0.70;;
19554;SDS011;9924;50.828;6.440;2023-11-19T01:31:08;3.38;;;1.00;;
19554;SDS011;9924;50.828;6.440;2023-11-19T01:33:35;1.27;;;0.70;;
19554;SDS011;9924;50.828;6.440;2023-11-19T01:36:01;2.95;;;0.90;;
19554;SDS011;9924;50.828;6.440;2023-11-19T01:38:27;5.97;;;1.00;;
19554;SDS011;9924;50.828;6.440;2023-11-19T01:40:56;1.85;;;0.98;;
19554;SDS011;9924;50.828;6.440;2023-11-19T01:46:01;3.03;;;0.98;;
19554;SDS011;9924;50.828;6.440;2023-11-19T01:48:28;3.33;;;1.00;;
19554;SDS011;9924;50.828;6.440;2023-11-19T01:50:55;2.17;;;1.02;;
19554;SDS011;9924;50.828;6.440;2023-11-19T01:53:22;6.25;;;2.17;;
19554;SDS011;9924;50.828;6.440;2023-11-19T01:55:48;2.92;;;1.20;;
19554;SDS011;9924;50.828;6.440;2023-11-19T01:58:14;8.73;;;1.25;;
19554;SDS011;9924;50.828;6.440;2023-11-19T02:00:42;4.43;;;1.00;;
19554;SDS011;9924;50.828;6.440;2023-11-19T02:03:09;4.70;;;1.30;;
19554;SDS011;9924;50.828;6.440;2023-11-19T02:05:36;10.50;;;1.58;;
19554;SDS011;9924;50.828;6.440;2023-11-19T02:08:04;6.50;;;1.27;;
19554;SDS011;9924;50.828;6.440;2023-11-19T02:10:29;7.60;;;1.42;;
19554;SDS011;9924;50.828;6.440;2023-11-19T02:12:57;6.82;;;1.35;;
19554;SDS011;9924;50.828;6.440;2023-11-19T02:15:24;5.30;;;1.48;;
19554;SDS011;9924;50.828;6.440;2023-11-19T02:17:50;5.80;;;1.20;;
19554;SDS011;9924;50.828;6.440;2023-11-19T02:20:16;7.28;;;1.20;;
19554;SDS011;9924;50.828;6.440;2023-11-19T02:22:45;6.70;;;1.42;;
19554;SDS011;9924;50.828;6.440;2023-11-19T02:25:25;8.13;;;1.40;;
19554;SDS011;9924;50.828;6.440;2023-11-19T02:28:00;6.78;;;1.58;;
19554;SDS011;9924;50.828;6.440;2023-11-19T02:30:27;6.82;;;1.35;;
19554;SDS011;9924;50.828;6.440;2023-11-19T02:32:56;3.15;;;1.48;;
19554;SDS011;9924;50.828;6.440;2023-11-19T02:35:26;5.93;;;1.10;;
19554;SDS011;9924;50.828;6.440;2023-11-19T02:37:56;10.70;;;1.92;;
19554;SDS011;9924;50.828;6.440;2023-11-19T02:40:22;11.90;;;1.67;;
19554;SDS011;9924;50.828;6.440;2023-11-19T02:42:49;7.88;;;1.50;;
19554;SDS011;9924;50.828;6.440;2023-11-19T02:45:19;6.20;;;1.27;;
19554;SDS011;9924;50.828;6.440;2023-11-19T02:47:47;5.38;;;1.52;;
19554;SDS011;9924;50.828;6.440;2023-11-19T02:50:13;7.28;;;1.40;;
19554;SDS011;9924;50.828;6.440;2023-11-19T02:52:41;4.63;;;1.35;;
19554;SDS011;9924;50.828;6.440;2023-11-19T02:55:09;9.18;;;1.55;;
19554;SDS011;9924;50.828;6.440;2023-11-19T02:57:40;5.53;;;1.27;;
19554;SDS011;9924;50.828;6.440;2023-11-19T03:00:20;5.78;;;1.58;;
19554;SDS011;9924;50.828;6.440;2023-11-19T03:02:57;6.18;;;1.70;;
19554;SDS011;9924;50.828;6.440;2023-11-19T03:05:30;8.82;;;1.58;;
19554;SDS011;9924;50.828;6.440;2023-11-19T03:07:56;9.57;;;1.75;;
19554;SDS011;9924;50.828;6.440;2023-11-19T03:10:22;9.73;;;1.83;;
19554;SDS011;9924;50.828;6.440;2023-11-19T03:12:49;8.05;;;2.20;;
19554;SDS011;9924;50.828;6.440;2023-11-19T03:15:15;9.48;;;1.80;;
19554;SDS011;9924;50.828;6.440;2023-11-19T03:17:41;11.40;;;2.25;;
19554;SDS011;9924;50.828;6.440;2023-11-19T03:20:08;8.70;;;1.77;;
19554;SDS011;9924;50.828;6.440;2023-11-19T03:22:38;9.13;;;1.85;;
19554;SDS011;9924;50.828;6.440;2023-11-19T03:25:06;7.18;;;1.55;;
19554;SDS011;9924;50.828;6.440;2023-11-19T03:27:36;6.05;;;1.35;;
19554;SDS011;9924;50.828;6.440;2023-11-19T03:30:09;8.55;;;2.20;;
19554;SDS011;9924;50.828;6.440;2023-11-19T03:32:35;7.18;;;2.45;;
19554;SDS011;9924;50.828;6.440;2023-11-19T03:35:02;10.13;;;1.90;;
19554;SDS011;9924;50.828;6.440;2023-11-19T03:37:29;7.88;;;1.75;;
19554;SDS011;9924;50.828;6.440;2023-11-19T03:39:57;5.43;;;1.48;;
19554;SDS011;9924;50.828;6.440;2023-11-19T03:42:27;8.65;;;1.67;;
19554;SDS011;9924;50.828;6.440;2023-11-19T03:44:55;10.82;;;1.92;;
19554;SDS011;9924;50.828;6.440;2023-11-19T03:47:21;8.27;;;1.73;;
19554;SDS011;9924;50.828;6.440;2023-11-19T03:49:50;10.25;;;2.13;;
19554;SDS011;9924;50.828;6.440;2023-11-19T03:52:17;7.30;;;2.10;;
19554;SDS011;9924;50.828;6.440;2023-11-19T03:54:43;7.57;;;1.77;;
19554;SDS011;9924;50.828;6.440;2023-11-19T03:57:11;7.25;;;1.88;;
19554;SDS011;9924;50.828;6.440;2023-11-19T03:59:40;9.18;;;1.80;;
19554;SDS011;9924;50.828;6.440;2023-11-19T04:02:06;9.98;;;1.85;;
19554;SDS011;9924;50.828;6.440;2023-11-19T04:04:32;8.30;;;1.92;;
19554;SDS011;9924;50.828;6.440;2023-11-19T04:06:58;9.35;;;2.28;;
19554;SDS011;9924;50.828;6.440;2023-11-19T04:09:26;15.43;;;2.67;;
19554;SDS011;9924;50.828;6.440;2023-11-19T04:11:52;11.80;;;2.40;;
19554;SDS011;9924;50.828;6.440;2023-11-19T04:14:17;11.98;;;2.40;;
19554;SDS011;9924;50.828;6.440;2023-11-19T04:16:43;10.00;;;2.13;;
19554;SDS011;9924;50.828;6.440;2023-11-19T04:19:10;8.00;;;1.85;;
19554;SDS011;9924;50.828;6.440;2023-11-19T04:21:36;8.57;;;1.90;;
19554;SDS011;9924;50.828;6.440;2023-11-19T04:24:02;14.98;;;2.35;;
19554;SDS011;9924;50.828;6.440;2023-11-19T04:26:28;6.53;;;1.92;;
19554;SDS011;9924;50.828;6.440;2023-11-19T04:28:54;8.85;;;2.47;;
19554;SDS011;9924;50.828;6.440;2023-11-19T04:31:19;13.05;;;2.13;;
19554;SDS011;9924;50.828;6.440;2023-11-19T04:33:45;10.00;;;2.25;;
19554;SDS011;9924;50.828;6.440;2023-11-19T04:36:12;10.00;;;2.10;;
19554;SDS011;9924;50.828;6.440;2023-11-19T04:38:39;15.32;;;2.55;;
19554;SDS011;9924;50.828;6.440;2023-11-19T04:41:05;16.45;;;2.88;;
19554;SDS011;9924;50.828;6.440;2023-11-19T04:43:31;13.45;;;2.40;;
19554;SDS011;9924;50.828;6.440;2023-11-19T04:45:57;13.60;;;3.08;;
19554;SDS011;9924;50.828;6.440;2023-11-19T04:48:23;15.15;;;2.10;;
19554;SDS011;9924;50.828;6.440;2023-11-19T04:50:49;14.20;;;2.47;;
19554;SDS011;9924;50.828;6.440;2023-11-19T04:53:19;22.85;;;2.67;;
19554;SDS011;9924;50.828;6.440;2023-11-19T04:55:45;19.50;;;3.20;;
19554;SDS011;9924;50.828;6.440;2023-11-19T04:58:10;11.65;;;2.80;;
19554;SDS011;9924;50.828;6.440;2023-11-19T05:00:36;13.90;;;2.33;;
19554;SDS011;9924;50.828;6.440;2023-11-19T05:03:02;16.30;;;3.40;;
19554;SDS011;9924;50.828;6.440;2023-11-19T05:05:28;15.02;;;2.17;;
19554;SDS011;9924;50.828;6.440;2023-11-19T05:07:54;12.20;;;2.45;;
19554;SDS011;9924;50.828;6.440;2023-11-19T05:10:20;12.52;;;3.60;;
19554;SDS011;9924;50.828;6.440;2023-11-19T05:12:46;12.68;;;2.38;;
19554;SDS011;9924;50.828;6.440;2023-11-19T05:15:11;15.43;;;2.50;;
19554;SDS011;9924;50.828;6.440;2023-11-19T05:17:37;14.48;;;3.00;;
19554;SDS011;9924;50.828;6.440;2023-11-19T05:20:04;11.95;;;2.42;;
19554;SDS011;9924;50.828;6.440;2023-11-19T05:22:31;9.98;;;2.30;;
19554;SDS011;9924;50.828;6.440;2023-11-19T05:24:57;11.98;;;2.15;;
19554;SDS011;9924;50.828;6.440;2023-11-19T05:27:23;9.82;;;2.08;;
19554;SDS011;9924;50.828;6.440;2023-11-19T05:29:49;16.95;;;2.15;;
19554;SDS011;9924;50.828;6.440;2023-11-19T05:32:15;12.63;;;1.70;;
19554;SDS011;9924;50.828;6.440;2023-11-19T05:34:41;12.57;;;2.72;;
19554;SDS011;9924;50.828;6.440;2023-11-19T05:37:06;10.98;;;1.70;;
19554;SDS011;9924;50.828;6.440;2023-11-19T05:39:34;15.80;;;2.55;;
19554;SDS011;9924;50.828;6.440;2023-11-19T05:42:00;12.35;;;2.60;;
19554;SDS011;9924;50.828;6.440;2023-11-19T05:44:26;19.27;;;2.53;;
19554;SDS011;9924;50.828;6.440;2023-11-19T05:46:52;14.93;;;2.45;;
19554;SDS011;9924;50.828;6.440;2023-11-19T05:49:18;10.65;;;1.98;;
19554;SDS011;9924;50.828;6.440;2023-11-19T05:51:43;14.38;;;2.60;;
19554;SDS011;9924;50.828;6.440;2023-11-19T05:54:09;12.40;;;2.40;;
19554;SDS011;9924;50.828;6.440;2023-11-19T05:56:35;22.58;;;2.35;;
19554;SDS011;9924;50.828;6.440;2023-11-19T05:59:02;8.38;;;2.15;;
19554;SDS011;9924;50.828;6.440;2023-11-19T06:01:43;13.85;;;2.25;;
19554;SDS011;9924;50.828;6.440;2023-11-19T06:04:09;15.52;;;2.42;;
19554;SDS011;9924;50.828;6.440;2023-11-19T06:06:35;20.77;;;2.63;;
19554;SDS011;9924;50.828;6.440;2023-11-19T06:09:02;11.15;;;2.17;;
19554;SDS011;9924;50.828;6.440;2023-11-19T06:11:29;11.82;;;1.90;;
19554;SDS011;9924;50.828;6.440;2023-11-19T06:13:55;10.73;;;2.33;;
19554;SDS011;9924;50.828;6.440;2023-11-19T06:16:21;19.25;;;4.40;;
19554;SDS011;9924;50.828;6.440;2023-11-19T06:18:48;15.38;;;3.05;;
19554;SDS011;9924;50.828;6.440;2023-11-19T06:21:13;10.30;;;2.25;;
19554;SDS011;9924;50.828;6.440;2023-11-19T06:23:39;13.75;;;2.47;;
19554;SDS011;9924;50.828;6.440;2023-11-19T06:26:05;12.02;;;1.90;;
19554;SDS011;9924;50.828;6.440;2023-11-19T06:28:31;11.15;;;2.00;;
19554;SDS011;9924;50.828;6.440;2023-11-19T06:30:57;14.68;;;2.58;;
19554;SDS011;9924;50.828;6.440;2023-11-19T06:33:23;20.17;;;2.67;;
19554;SDS011;9924;50.828;6.440;2023-11-19T06:35:49;13.00;;;2.17;;
19554;SDS011;9924;50.828;6.440;2023-11-19T06:38:15;12.75;;;2.83;;
19554;SDS011;9924;50.828;6.440;2023-11-19T06:40:41;15.50;;;2.22;;
19554;SDS011;9924;50.828;6.440;2023-11-19T06:43:07;14.50;;;2.13;;
19554;SDS011;9924;50.828;6.440;2023-11-19T06:45:36;8.60;;;2.25;;
19554;SDS011;9924;50.828;6.440;2023-11-19T06:48:05;12.35;;;2.30;;
19554;SDS011;9924;50.828;6.440;2023-11-19T06:50:31;11.15;;;2.38;;
19554;SDS011;9924;50.828;6.440;2023-11-19T06:52:58;11.13;;;1.73;;
19554;SDS011;9924;50.828;6.440;2023-11-19T06:55:25;17.23;;;2.38;;
19554;SDS011;9924;50.828;6.440;2023-11-19T06:57:52;11.05;;;2.50;;
19554;SDS011;9924;50.828;6.440;2023-11-19T07:00:18;23.73;;;2.90;;
19554;SDS011;9924;50.828;6.440;2023-11-19T07:02:44;17.15;;;2.65;;
19554;SDS011;9924;50.828;6.440;2023-11-19T07:05:11;18.85;;;2.63;;
19554;SDS011;9924;50.828;6.440;2023-11-19T07:07:38;18.88;;;2.88;;
19554;SDS011;9924;50.828;6.440;2023-11-19T07:10:05;17.23;;;2.30;;
19554;SDS011;9924;50.828;6.440;2023-11-19T07:12:34;10.32;;;2.25;;
19554;SDS011;9924;50.828;6.440;2023-11-19T07:15:01;15.68;;;2.05;;
19554;SDS011;9924;50.828;6.440;2023-11-19T07:17:29;17.50;;;2.63;;
19554;SDS011;9924;50.828;6.440;2023-11-19T07:19:55;12.00;;;2.45;;
19554;SDS011;9924;50.828;6.440;2023-11-19T07:22:24;18.13;;;2.33;;
19554;SDS011;9924;50.828;6.440;2023-11-19T07:24:51;15.68;;;2.38;;
19554;SDS011;9924;50.828;6.440;2023-11-19T07:27:18;11.13;;;2.20;;
19554;SDS011;9924;50.828;6.440;2023-11-19T07:29:44;15.07;;;2.85;;
19554;SDS011;9924;50.828;6.440;2023-11-19T07:32:11;12.93;;;2.33;;
19554;SDS011;9924;50.828;6.440;2023-11-19T07:34:38;10.35;;;2.15;;
19554;SDS011;9924;50.828;6.440;2023-11-19T07:37:05;7.10;;;2.13;;
19554;SDS011;9924;50.828;6.440;2023-11-19T07:39:31;12.75;;;2.25;;
19554;SDS011;9924;50.828;6.440;2023-11-19T07:41:57;15.57;;;2.13;;
19554;SDS011;9924;50.828;6.440;2023-11-19T07:44:24;14.45;;;2.78;;
19554;SDS011;9924;50.828;6.440;2023-11-19T07:46:51;14.68;;;2.97;;
19554;SDS011;9924;50.828;6.440;2023-11-19T07:49:16;10.63;;;2.25;;
19554;SDS011;9924;50.828;6.440;2023-11-19T07:51:42;14.82;;;2.45;;
19554;SDS011;9924;50.828;6.440;2023-11-19T07:54:08;17.73;;;2.97;;
19554;SDS011;9924;50.828;6.440;2023-11-19T07:56:34;11.55;;;2.58;;
19554;SDS011;9924;50.828;6.440;2023-11-19T07:59:03;11.25;;;2.20;;
19554;SDS011;9924;50.828;6.440;2023-11-19T08:01:29;17.17;;;2.85;;
19554;SDS011;9924;50.828;6.440;2023-11-19T08:03:55;15.45;;;3.20;;
19554;SDS011;9924;50.828;6.440;2023-11-19T08:06:21;14.35;;;2.72;;
19554;SDS011;9924;50.828;6.440;2023-11-19T08:08:47;10.40;;;2.67;;
19554;SDS011;9924;50.828;6.440;2023-11-19T08:11:13;14.43;;;2.80;;
19554;SDS011;9924;50.828;6.440;2023-11-19T08:13:40;14.48;;;2.42;;
19554;SDS011;9924;50.828;6.440;2023-11-19T08:16:06;10.15;;;1.65;;
19554;SDS011;9924;50.828;6.440;2023-11-19T08:18:32;11.73;;;2.20;;
19554;SDS011;9924;50.828;6.440;2023-11-19T08:20:58;15.88;;;2.47;;
19554;SDS011;9924;50.828;6.440;2023-11-19T08:23:26;11.63;;;2.72;;
19554;SDS011;9924;50.828;6.440;2023-11-19T08:25:53;13.10;;;2.63;;
19554;SDS011;9924;50.828;6.440;2023-11-19T08:28:19;11.70;;;2.40;;
19554;SDS011;9924;50.828;6.440;2023-11-19T08:30:45;15.57;;;2.45;;
19554;SDS011;9924;50.828;6.440;2023-11-19T08:33:11;16.95;;;2.75;;
19554;SDS011;9924;50.828;6.440;2023-11-19T08:35:37;20.08;;;2.92;;
19554;SDS011;9924;50.828;6.440;2023-11-19T08:38:03;18.65;;;2.38;;
19554;SDS011;9924;50.828;6.440;2023-11-19T08:40:29;17.92;;;2.60;;
19554;SDS011;9924;50.828;6.440;2023-11-19T08:42:55;18.17;;;2.28;;
19554;SDS011;9924;50.828;6.440;2023-11-19T08:45:22;15.98;;;3.72;;
19554;SDS011;9924;50.828;6.440;2023-11-19T08:47:47;15.05;;;2.42;;
19554;SDS011;9924;50.828;6.440;2023-11-19T08:50:14;16.00;;;2.50;;
19554;SDS011;9924;50.828;6.440;2023-11-19T08:52:39;11.80;;;2.53;;
19554;SDS011;9924;50.828;6.440;2023-11-19T08:55:05;17.13;;;2.72;;
19554;SDS011;9924;50.828;6.440;2023-11-19T08:57:31;11.25;;;2.83;;
19554;SDS011;9924;50.828;6.440;2023-11-19T09:00:00;12.23;;;2.17;;
19554;SDS011;9924;50.828;6.440;2023-11-19T09:02:28;18.45;;;2.78;;
19554;SDS011;9924;50.828;6.440;2023-11-19T09:04:54;12.43;;;2.50;;
19554;SDS011;9924;50.828;6.440;2023-11-19T09:07:20;17.23;;;2.40;;
19554;SDS011;9924;50.828;6.440;2023-11-19T09:09:46;17.23;;;2.28;;
19554;SDS011;9924;50.828;6.440;2023-11-19T09:12:12;9.90;;;2.67;;
19554;SDS011;9924;50.828;6.440;2023-11-19T09:14:39;21.65;;;2.65;;
19554;SDS011;9924;50.828;6.440;2023-11-19T09:17:05;11.38;;;2.10;;
19554;SDS011;9924;50.828;6.440;2023-11-19T09:19:32;12.45;;;2.67;;
19554;SDS011;9924;50.828;6.440;2023-11-19T09:22:01;18.38;;;2.42;;
19554;SDS011;9924;50.828;6.440;2023-11-19T09:24:27;15.85;;;1.95;;
19554;SDS011;9924;50.828;6.440;2023-11-19T09:26:53;12.95;;;2.58;;
19554;SDS011;9924;50.828;6.440;2023-11-19T09:29:21;17.02;;;2.00;;
19554;SDS011;9924;50.828;6.440;2023-11-19T09:31:47;10.73;;;2.00;;
19554;SDS011;9924;50.828;6.440;2023-11-19T09:34:13;22.48;;;2.67;;
19554;SDS011;9924;50.828;6.440;2023-11-19T09:36:39;17.60;;;2.60;;
19554;SDS011;9924;50.828;6.440;2023-11-19T09:39:09;11.35;;;2.63;;
19554;SDS011;9924;50.828;6.440;2023-11-19T09:41:36;14.50;;;2.45;;
19554;SDS011;9924;50.828;6.440;2023-11-19T09:44:01;18.95;;;3.50;;
19554;SDS011;9924;50.828;6.440;2023-11-19T09:46:28;17.58;;;2.55;;
19554;SDS011;9924;50.828;6.440;2023-11-19T09:48:54;15.95;;;2.00;;
19554;SDS011;9924;50.828;6.440;2023-11-19T09:51:24;14.52;;;2.00;;
19554;SDS011;9924;50.828;6.440;2023-11-19T09:53:51;17.92;;;2.10;;
19554;SDS011;9924;50.828;6.440;2023-11-19T09:56:17;15.80;;;2.80;;
19554;SDS011;9924;50.828;6.440;2023-11-19T09:58:43;20.55;;;2.42;;
19554;SDS011;9924;50.828;6.440;2023-11-19T10:01:09;17.30;;;2.67;;
19554;SDS011;9924;50.828;6.440;2023-11-19T10:03:37;17.52;;;2.28;;
19554;SDS011;9924;50.828;6.440;2023-11-19T10:06:06;13.13;;;2.55;;
19554;SDS011;9924;50.828;6.440;2023-11-19T10:08:36;16.75;;;2.75;;
19554;SDS011;9924;50.828;6.440;2023-11-19T10:11:04;18.33;;;3.20;;
19554;SDS011;9924;50.828;6.440;2023-11-19T10:13:35;17.95;;;2.80;;
19554;SDS011;9924;50.828;6.440;2023-11-19T10:16:04;14.50;;;2.80;;
19554;SDS011;9924;50.828;6.440;2023-11-19T10:18:33;16.95;;;2.60;;
19554;SDS011;9924;50.828;6.440;2023-11-19T10:21:05;15.02;;;2.35;;
19554;SDS011;9924;50.828;6.440;2023-11-19T10:23:31;16.83;;;2.33;;
19554;SDS011;9924;50.828;6.440;2023-11-19T10:26:22;13.40;;;2.38;;
19554;SDS011;9924;50.828;6.440;2023-11-19T10:28:48;12.00;;;2.15;;
19554;SDS011;9924;50.828;6.440;2023-11-19T10:31:19;18.02;;;2.70;;
19554;SDS011;9924;50.828;6.440;2023-11-19T10:33:52;13.15;;;2.33;;
19554;SDS011;9924;50.828;6.440;2023-11-19T10:36:18;19.52;;;2.85;;
19554;SDS011;9924;50.828;6.440;2023-11-19T10:38:53;15.55;;;2.15;;
19554;SDS011;9924;50.828;6.440;2023-11-19T10:41:28;14.02;;;2.03;;
19554;SDS011;9924;50.828;6.440;2023-11-19T10:43:54;14.63;;;2.63;;
19554;SDS011;9924;50.828;6.440;2023-11-19T10:46:20;13.25;;;2.95;;
19554;SDS011;9924;50.828;6.440;2023-11-19T10:48:48;15.68;;;2.00;;
19554;SDS011;9924;50.828;6.440;2023-11-19T10:51:16;13.63;;;1.98;;
19554;SDS011;9924;50.828;6.440;2023-11-19T10:53:49;11.57;;;2.33;;
19554;SDS011;9924;50.828;6.440;2023-11-19T10:56:19;17.45;;;3.08;;
19554;SDS011;9924;50.828;6.440;2023-11-19T10:58:48;12.30;;;2.00;;
19554;SDS011;9924;50.828;6.440;2023-11-19T11:01:18;10.00;;;2.30;;
19554;SDS011;9924;50.828;6.440;2023-11-19T11:03:48;12.95;;;2.28;;
19554;SDS011;9924;50.828;6.440;2023-11-19T11:06:20;16.60;;;2.47;;
19554;SDS011;9924;50.828;6.440;2023-11-19T11:08:47;11.80;;;2.30;;
19554;SDS011;9924;50.828;6.440;2023-11-19T11:11:15;20.52;;;2.90;;
19554;SDS011;9924;50.828;6.440;2023-11-19T11:13:46;16.92;;;1.98;;
19554;SDS011;9924;50.828;6.440;2023-11-19T11:16:14;12.25;;;1.90;;
19554;SDS011;9924;50.828;6.440;2023-11-19T11:18:45;14.73;;;2.47;;
19554;SDS011;9924;50.828;6.440;2023-11-19T11:21:19;13.02;;;2.15;;
19554;SDS011;9924;50.828;6.440;2023-11-19T11:24:05;12.73;;;2.00;;
19554;SDS011;9924;50.828;6.440;2023-11-19T11:35:21;11.77;;;2.40;;
19554;SDS011;9924;50.828;6.440;2023-11-19T11:38:03;12.25;;;2.97;;
19554;SDS011;9924;50.828;6.440;2023-11-19T11:40:32;14.50;;;2.17;;
19554;SDS011;9924;50.828;6.440;2023-11-19T11:42:58;9.05;;;1.92;;
19554;SDS011;9924;50.828;6.440;2023-11-19T11:45:39;8.10;;;2.00;;
19554;SDS011;9924;50.828;6.440;2023-11-19T11:48:09;9.07;;;2.55;;
19554;SDS011;9924;50.828;6.440;2023-11-19T11:50:54;15.98;;;2.97;;
19554;SDS011;9924;50.828;6.440;2023-11-19T11:53:23;10.70;;;1.95;;
19554;SDS011;9924;50.828;6.440;2023-11-19T11:58:18;13.27;;;2.25;;
19554;SDS011;9924;50.828;6.440;2023-11-19T12:00:46;18.70;;;2.17;;
19554;SDS011;9924;50.828;6.440;2023-11-19T12:03:13;15.05;;;2.65;;
19554;SDS011;9924;50.828;6.440;2023-11-19T12:05:43;13.05;;;2.35;;
19554;SDS011;9924;50.828;6.440;2023-11-19T12:08:11;10.57;;;2.10;;
19554;SDS011;9924;50.828;6.440;2023-11-19T12:10:46;10.70;;;2.13;;
19554;SDS011;9924;50.828;6.440;2023-11-19T12:13:15;10.52;;;2.15;;
19554;SDS011;9924;50.828;6.440;2023-11-19T12:18:28;9.68;;;1.80;;
19554;SDS011;9924;50.828;6.440;2023-11-19T12:20:59;10.70;;;2.20;;
19554;SDS011;9924;50.828;6.440;2023-11-19T12:23:26;10.43;;;1.70;;
19554;SDS011;9924;50.828;6.440;2023-11-19T12:25:54;8.32;;;2.08;;
19554;SDS011;9924;50.828;6.440;2023-11-19T12:28:20;9.75;;;1.95;;
19554;SDS011;9924;50.828;6.440;2023-11-19T12:30:49;9.02;;;1.90;;
19554;SDS011;9924;50.828;6.440;2023-11-19T12:33:16;7.00;;;1.60;;
19554;SDS011;9924;50.828;6.440;2023-11-19T12:35:43;8.75;;;1.90;;
19554;SDS011;9924;50.828;6.440;2023-11-19T12:38:22;12.55;;;1.73;;
19554;SDS011;9924;50.828;6.440;2023-11-19T12:41:09;10.77;;;2.75;;
19554;SDS011;9924;50.828;6.440;2023-11-19T12:43:38;19.77;;;2.10;;
19554;SDS011;9924;50.828;6.440;2023-11-19T12:46:23;17.50;;;2.25;;
19554;SDS011;9924;50.828;6.440;2023-11-19T12:48:49;10.05;;;2.33;;
19554;SDS011;9924;50.828;6.440;2023-11-19T12:51:16;17.00;;;2.58;;
19554;SDS011;9924;50.828;6.440;2023-11-19T12:53:51;14.57;;;2.50;;
19554;SDS011;9924;50.828;6.440;2023-11-19T12:56:23;15.75;;;2.13;;
19554;SDS011;9924;50.828;6.440;2023-11-19T12:58:49;22.83;;;2.90;;
19554;SDS011;9924;50.828;6.440;2023-11-19T13:01:18;14.75;;;2.75;;
19554;SDS011;9924;50.828;6.440;2023-11-19T13:03:45;13.70;;;3.30;;
19554;SDS011;9924;50.828;6.440;2023-11-19T13:06:12;13.52;;;2.13;;
19554;SDS011;9924;50.828;6.440;2023-11-19T13:08:42;11.93;;;2.45;;
19554;SDS011;9924;50.828;6.440;2023-11-19T13:11:12;15.18;;;2.20;;
19554;SDS011;9924;50.828;6.440;2023-11-19T13:13:57;21.67;;;2.40;;
19554;SDS011;9924;50.828;6.440;2023-11-19T13:16:25;12.93;;;2.08;;
19554;SDS011;9924;50.828;6.440;2023-11-19T13:18:51;18.67;;;2.33;;
19554;SDS011;9924;50.828;6.440;2023-11-19T13:21:17;8.55;;;1.40;;
19554;SDS011;9924;50.828;6.440;2023-11-19T13:23:43;13.93;;;2.67;;
19554;SDS011;9924;50.828;6.440;2023-11-19T13:26:09;14.15;;;3.22;;
19554;SDS011;9924;50.828;6.440;2023-11-19T13:28:36;11.57;;;2.40;;
19554;SDS011;9924;50.828;6.440;2023-11-19T13:31:03;14.70;;;2.63;;
19554;SDS011;9924;50.828;6.440;2023-11-19T13:33:29;15.82;;;2.33;;
19554;SDS011;9924;50.828;6.440;2023-11-19T13:35:55;15.77;;;2.95;;
19554;SDS011;9924;50.828;6.440;2023-11-19T13:38:22;14.32;;;2.50;;
19554;SDS011;9924;50.828;6.440;2023-11-19T13:40:51;13.32;;;2.20;;
19554;SDS011;9924;50.828;6.440;2023-11-19T13:43:17;12.68;;;1.90;;
19554;SDS011;9924;50.828;6.440;2023-11-19T13:45:42;16.23;;;2.35;;
19554;SDS011;9924;50.828;6.440;2023-11-19T13:48:08;13.40;;;2.08;;
19554;SDS011;9924;50.828;6.440;2023-11-19T13:50:34;16.35;;;2.65;;
19554;SDS011;9924;50.828;6.440;2023-11-19T13:53:00;15.48;;;2.53;;
19554;SDS011;9924;50.828;6.440;2023-11-19T13:55:26;12.52;;;2.13;;
19554;SDS011;9924;50.828;6.440;2023-11-19T13:57:52;9.05;;;1.70;;
19554;SDS011;9924;50.828;6.440;2023-11-19T14:00:18;12.57;;;2.50;;
19554;SDS011;9924;50.828;6.440;2023-11-19T14:02:45;9.15;;;2.05;;
19554;SDS011;9924;50.828;6.440;2023-11-19T14:05:12;8.98;;;2.00;;
19554;SDS011;9924;50.828;6.440;2023-11-19T14:07:40;11.52;;;1.75;;
19554;SDS011;9924;50.828;6.440;2023-11-19T14:10:06;10.93;;;1.90;;
19554;SDS011;9924;50.828;6.440;2023-11-19T14:12:39;11.00;;;1.77;;
19554;SDS011;9924;50.828;6.440;2023-11-19T14:15:05;8.98;;;2.58;;
19554;SDS011;9924;50.828;6.440;2023-11-19T14:17:33;12.73;;;1.90;;
19554;SDS011;9924;50.828;6.440;2023-11-19T14:19:59;8.90;;;2.00;;
19554;SDS011;9924;50.828;6.440;2023-11-19T14:22:26;11.45;;;1.88;;
19554;SDS011;9924;50.828;6.440;2023-11-19T14:24:52;16.50;;;2.03;;
19554;SDS011;9924;50.828;6.440;2023-11-19T14:27:17;8.52;;;1.85;;
19554;SDS011;9924;50.828;6.440;2023-11-19T14:29:43;14.80;;;2.25;;
19554;SDS011;9924;50.828;6.440;2023-11-19T14:32:12;10.50;;;1.80;;
19554;SDS011;9924;50.828;6.440;2023-11-19T14:34:38;14.25;;;2.72;;
19554;SDS011;9924;50.828;6.440;2023-11-19T14:37:04;10.50;;;1.73;;
19554;SDS011;9924;50.828;6.440;2023-11-19T14:39:29;9.35;;;1.95;;
19554;SDS011;9924;50.828;6.440;2023-11-19T14:41:59;10.60;;;2.25;;
19554;SDS011;9924;50.828;6.440;2023-11-19T14:44:29;12.95;;;2.25;;
19554;SDS011;9924;50.828;6.440;2023-11-19T14:46:55;11.23;;;1.98;;
19554;SDS011;9924;50.828;6.440;2023-11-19T14:49:21;9.77;;;1.67;;
19554;SDS011;9924;50.828;6.440;2023-11-19T14:51:49;9.77;;;2.33;;
19554;SDS011;9924;50.828;6.440;2023-11-19T14:54:15;14.45;;;2.42;;
19554;SDS011;9924;50.828;6.440;2023-11-19T14:56:41;13.95;;;2.17;;
19554;SDS011;9924;50.828;6.440;2023-11-19T14:59:07;12.25;;;1.90;;
19554;SDS011;9924;50.828;6.440;2023-11-19T15:01:32;13.35;;;2.40;;
19554;SDS011;9924;50.828;6.440;2023-11-19T15:03:58;11.90;;;2.17;;
19554;SDS011;9924;50.828;6.440;2023-11-19T15:06:24;12.30;;;2.22;;
19554;SDS011;9924;50.828;6.440;2023-11-19T15:08:55;17.73;;;1.98;;
19554;SDS011;9924;50.828;6.440;2023-11-19T15:11:21;18.02;;;2.03;;